Time;durP1;ratioP1;P1;durP2;ratioP2;P2;SDS_P1;SDS_P2;PMS_P1;PMS_P2;Temp;Humidity;BMP_temperature;BMP_pressure;BME280_temperature;BME280_humidity;BME280_pressure;Samples;Min_cycle;Max_cycle;Signal;HPM_P1;HPM_P2
2022/10/31 00:01:09;;;;;;;23.48;11.25;;;12.20;99.90;;;;;;4921737;29;20094;-63
2022/10/31 00:03:34;;;;;;;25.95;11.70;;;12.20;99.90;;;;;;4918680;29;20046;-63
2022/10/31 00:06:01;;;;;;;25.98;13.27;;;12.20;99.90;;;;;;4901708;29;20048;-64
2022/10/31 00:08:27;;;;;;;23.83;11.40;;;12.20;99.90;;;;;;4921439;29;20107;-63
2022/10/31 00:10:52;;;;;;;22.40;11.95;;;12.20;99.90;;;;;;4919131;29;20031;-65
2022/10/31 00:13:18;;;;;;;23.52;12.25;;;12.20;99.90;;;;;;4918592;29;20201;-63
2022/10/31 00:15:43;;;;;;;22.15;11.55;;;12.10;99.90;;;;;;4897860;29;20160;-64
2022/10/31 00:18:10;;;;;;;25.77;11.57;;;12.10;99.90;;;;;;4919289;29;20515;-63
2022/10/31 00:20:36;;;;;;;24.00;11.82;;;12.10;99.90;;;;;;4915235;29;20047;-63
2022/10/31 00:23:03;;;;;;;22.30;12.57;;;12.10;99.90;;;;;;4918487;29;20039;-65
2022/10/31 00:25:34;;;;;;;25.60;12.85;;;12.10;99.90;;;;;;4919451;29;20102;-63
2022/10/31 00:27:59;;;;;;;;;;;12.00;99.90;;;;;;4903111;29;20040;-63
2022/10/31 00:30:25;;;;;;;25.92;11.32;;;12.10;99.90;;;;;;4920942;29;20071;-65
2022/10/31 00:32:50;;;;;;;23.52;11.70;;;12.00;99.90;;;;;;4922206;29;20046;-64
2022/10/31 00:35:16;;;;;;;21.75;11.00;;;12.00;99.90;;;;;;4919676;29;20055;-65
2022/10/31 00:37:41;;;;;;;21.63;11.82;;;11.90;99.90;;;;;;4918402;29;20067;-63
2022/10/31 00:40:07;;;;;;;24.48;11.52;;;11.90;99.90;;;;;;4918980;29;20047;-64
2022/10/31 00:42:33;;;;;;;23.38;11.27;;;11.90;99.90;;;;;;4916132;29;20059;-64
2022/10/31 00:44:58;;;;;;;18.98;10.10;;;11.80;99.90;;;;;;4925414;29;20131;-65
2022/10/31 00:47:24;;;;;;;19.65;10.10;;;11.80;99.90;;;;;;4923395;29;20079;-63
2022/10/31 00:49:49;;;;;;;18.40;9.75;;;11.80;99.90;;;;;;4917839;29;20039;-65
2022/10/31 00:52:15;;;;;;;24.80;9.98;;;11.70;99.90;;;;;;4893979;29;20048;-65
2022/10/31 00:54:40;;;;;;;21.27;10.07;;;11.80;99.90;;;;;;4918094;29;20055;-64
2022/10/31 00:57:06;;;;;;;20.80;10.02;;;11.80;99.90;;;;;;4917952;29;20047;-64
2022/10/31 00:59:32;;;;;;;22.00;9.90;;;11.80;99.90;;;;;;4926311;29;20052;-64
2022/10/31 01:01:57;;;;;;;22.45;10.40;;;11.80;99.90;;;;;;4919796;29;20088;-64
2022/10/31 01:04:23;;;;;;;21.58;9.57;;;11.80;99.90;;;;;;4930344;29;20047;-63
2022/10/31 01:06:48;;;;;;;18.50;9.90;;;11.80;99.90;;;;;;4927005;29;20051;-63
2022/10/31 01:09:14;;;;;;;23.30;10.30;;;11.80;99.90;;;;;;4928578;29;20028;-63
2022/10/31 01:11:39;;;;;;;21.77;10.25;;;11.80;99.90;;;;;;4923920;29;20083;-65
2022/10/31 01:14:05;;;;;;;21.83;10.93;;;11.70;99.90;;;;;;4911908;29;20074;-63
2022/10/31 01:16:30;;;;;;;22.05;10.60;;;11.70;99.90;;;;;;4915315;29;20043;-63
2022/10/31 01:18:56;;;;;;;20.90;11.02;;;11.70;99.90;;;;;;4902099;29;20051;-64
2022/10/31 01:21:24;;;;;;;22.77;11.05;;;11.60;99.90;;;;;;4899587;29;20043;-64
2022/10/31 01:23:52;;;;;;;21.63;10.63;;;11.60;99.90;;;;;;4916916;29;20842;-65
2022/10/31 01:26:21;;;;;;;20.80;10.75;;;11.60;99.90;;;;;;4919874;29;20046;-65
2022/10/31 01:28:57;;;;;;;20.98;11.88;;;11.50;99.90;;;;;;4924094;29;20118;-63
2022/10/31 01:31:26;;;;;;;23.40;11.23;;;11.50;99.90;;;;;;4919881;29;20080;-64
2022/10/31 01:33:52;;;;;;;21.48;11.30;;;11.50;99.90;;;;;;4907619;29;20062;-63
2022/10/31 01:36:19;;;;;;;26.00;11.15;;;11.60;99.90;;;;;;4920547;29;20047;-64
2022/10/31 01:38:48;;;;;;;24.27;11.63;;;11.50;99.90;;;;;;4932092;29;20082;-64
2022/10/31 01:41:18;;;;;;;24.35;12.48;;;11.50;99.90;;;;;;4923467;29;20432;-64
2022/10/31 01:44:03;;;;;;;23.67;13.80;;;11.60;99.90;;;;;;4931159;29;20082;-63
2022/10/31 01:46:38;;;;;;;30.80;13.70;;;11.60;99.90;;;;;;4912521;29;20044;-64
2022/10/31 01:49:09;;;;;;;33.50;14.13;;;11.70;99.90;;;;;;4933052;29;20044;-64
2022/10/31 01:51:36;;;;;;;;;;;11.60;99.90;;;;;;4927112;29;20071;-65
2022/10/31 01:54:06;;;;;;;25.77;12.75;;;11.70;99.90;;;;;;4922658;29;20002;-63
2022/10/31 01:56:34;;;;;;;28.52;14.10;;;11.60;99.90;;;;;;4916864;29;20050;-64
2022/10/31 01:59:01;;;;;;;29.10;13.77;;;11.70;99.90;;;;;;4918317;29;20056;-64
2022/10/31 02:01:28;;;;;;;26.23;13.90;;;11.70;99.90;;;;;;4920735;29;20048;-64
2022/10/31 02:03:55;;;;;;;31.45;14.80;;;11.70;99.90;;;;;;4918912;29;20052;-65
2022/10/31 02:06:38;;;;;;;28.33;12.82;;;11.70;99.90;;;;;;4924404;29;20043;-63
2022/10/31 02:09:05;;;;;;;23.63;12.90;;;11.70;99.90;;;;;;4897079;29;20071;-63
2022/10/31 02:11:32;;;;;;;20.25;11.70;;;11.60;99.90;;;;;;4908107;29;20048;-64
2022/10/31 02:14:00;;;;;;;23.90;13.07;;;11.50;99.90;;;;;;4918291;29;20047;-66
2022/10/31 02:16:25;;;;;;;26.50;11.95;;;11.40;99.90;;;;;;4909498;29;20103;-64
2022/10/31 02:18:51;;;;;;;25.95;11.85;;;11.40;99.90;;;;;;4928708;29;20051;-64
2022/10/31 02:21:53;;;;;;;25.42;12.40;;;11.40;99.90;;;;;;4925220;29;20511;-63
2022/10/31 02:24:46;;;;;;;21.58;11.98;;;11.30;99.90;;;;;;4888000;29;20062;-64
2022/10/31 02:27:49;;;;;;;23.15;12.13;;;11.30;99.90;;;;;;4909903;29;20086;-64
2022/10/31 02:30:17;;;;;;;22.83;11.52;;;11.30;99.90;;;;;;4921026;29;20055;-64
2022/10/31 02:33:15;;;;;;;20.85;12.25;;;11.20;99.90;;;;;;4918675;29;20044;-63
2022/10/31 02:35:56;;;;;;;28.98;12.40;;;11.20;99.90;;;;;;4919990;29;20052;-63
2022/10/31 02:38:47;;;;;;;22.30;12.00;;;11.10;99.90;;;;;;4925102;29;20054;-64
2022/10/31 02:41:23;;;;;;;24.45;12.73;;;11.10;99.90;;;;;;4903511;29;20632;-65
2022/10/31 02:44:10;;;;;;;25.50;11.38;;;11.00;99.90;;;;;;4926186;29;20044;-64
2022/10/31 02:46:48;;;;;;;23.77;10.80;;;11.00;99.90;;;;;;4917405;29;20522;-63
2022/10/31 02:49:26;;;;;;;21.05;11.10;;;10.90;99.90;;;;;;4909618;29;20051;-64
2022/10/31 02:51:52;;;;;;;20.55;11.25;;;10.80;99.90;;;;;;4920225;29;20040;-64
2022/10/31 02:54:27;;;;;;;22.67;12.32;;;10.80;99.90;;;;;;4924701;29;20121;-64
2022/10/31 02:57:04;;;;;;;22.27;10.63;;;10.80;99.90;;;;;;4904217;29;20118;-64
2022/10/31 02:59:32;;;;;;;19.05;10.10;;;10.70;99.90;;;;;;4921822;29;20128;-64
2022/10/31 03:02:47;;;;;;;23.10;11.18;;;10.60;99.90;;;;;;4915188;29;20054;-64
2022/10/31 03:05:16;;;;;;;19.70;10.18;;;10.50;99.90;;;;;;4897972;29;21042;-65
2022/10/31 03:08:02;;;;;;;17.63;10.32;;;10.50;99.90;;;;;;4906995;29;20128;-63
2022/10/31 03:10:41;;;;;;;17.52;9.38;;;10.40;99.90;;;;;;4915493;29;20146;-64
2022/10/31 03:13:28;;;;;;;18.02;9.63;;;10.30;99.90;;;;;;4899297;29;20059;-63
2022/10/31 03:16:10;;;;;;;20.80;10.63;;;10.30;99.90;;;;;;4924499;29;20129;-64
2022/10/31 03:19:03;;;;;;;23.17;11.10;;;10.30;99.90;;;;;;4902138;29;20048;-65
2022/10/31 03:21:43;;;;;;;20.63;11.07;;;10.20;99.90;;;;;;4913841;29;20044;-64
2022/10/31 03:24:11;;;;;;;13.07;7.45;;;10.20;99.90;;;;;;4926696;29;20040;-64
2022/10/31 03:26:41;;;;;;;15.45;8.13;;;10.10;99.90;;;;;;4905194;29;20087;-64
2022/10/31 03:29:10;;;;;;;15.55;8.20;;;10.00;99.90;;;;;;4927998;29;20416;-64
2022/10/31 03:31:44;;;;;;;16.20;9.65;;;10.00;99.90;;;;;;4925305;29;20036;-65
2022/10/31 03:34:12;;;;;;;14.98;8.15;;;9.90;99.90;;;;;;4928162;29;20486;-64
2022/10/31 03:36:39;;;;;;;17.17;9.57;;;9.90;99.90;;;;;;4923571;29;20091;-65
2022/10/31 03:39:08;;;;;;;20.13;9.90;;;9.80;99.90;;;;;;4910099;29;20051;-63
2022/10/31 03:41:40;;;;;;;17.48;9.60;;;9.80;99.90;;;;;;4929692;29;20123;-63
2022/10/31 03:44:11;;;;;;;28.23;10.75;;;9.70;99.90;;;;;;4909912;29;20056;-64
2022/10/31 03:46:37;;;;;;;23.95;10.85;;;9.60;99.90;;;;;;4921866;29;20040;-63
2022/10/31 03:49:03;;;;;;;29.88;11.70;;;9.60;99.90;;;;;;4902337;29;20464;-63
2022/10/31 03:51:50;;;;;;;18.25;10.00;;;9.60;99.90;;;;;;4919794;29;20532;-65
2022/10/31 03:54:15;;;;;;;18.67;10.27;;;9.50;99.90;;;;;;4915786;29;20064;-63
2022/10/31 03:56:51;;;;;;;25.52;12.65;;;9.50;99.90;;;;;;4917254;29;21043;-63
2022/10/31 03:59:36;;;;;;;20.15;12.13;;;9.50;99.90;;;;;;4908719;29;20091;-64
2022/10/31 04:02:12;;;;;;;21.10;10.77;;;9.50;99.90;;;;;;4921702;29;22277;-63
2022/10/31 04:04:38;;;;;;;32.30;11.35;;;9.40;99.90;;;;;;4920374;29;20044;-65
2022/10/31 04:07:06;;;;;;;19.95;10.05;;;9.40;99.90;;;;;;4915510;29;20082;-63
2022/10/31 04:09:36;;;;;;;20.40;10.52;;;9.40;99.90;;;;;;4905792;29;20039;-63
2022/10/31 04:12:08;;;;;;;17.52;9.57;;;9.40;99.90;;;;;;4900712;29;20043;-63
2022/10/31 04:14:37;;;;;;;18.63;10.10;;;9.40;99.90;;;;;;4931844;29;20047;-63
2022/10/31 04:17:07;;;;;;;16.95;9.25;;;9.30;99.90;;;;;;4919310;29;20062;-63
2022/10/31 04:19:33;;;;;;;16.60;10.50;;;9.30;99.90;;;;;;4920036;29;20055;-64
2022/10/31 04:21:59;;;;;;;18.05;11.18;;;9.30;99.90;;;;;;4899702;29;20047;-63
2022/10/31 04:24:24;;;;;;;18.10;10.30;;;9.30;99.90;;;;;;4917372;29;20511;-65
2022/10/31 04:26:50;;;;;;;18.75;10.32;;;9.30;99.90;;;;;;4916092;29;20040;-63
2022/10/31 04:29:16;;;;;;;14.07;8.82;;;9.20;99.90;;;;;;4920022;29;20047;-64
2022/10/31 04:31:41;;;;;;;11.18;7.97;;;9.20;99.90;;;;;;4921265;29;20039;-63
2022/10/31 04:34:07;;;;;;;55.70;12.15;;;9.10;99.90;;;;;;4907915;29;20075;-65
2022/10/31 04:36:33;;;;;;;108.15;12.45;;;9.00;99.90;;;;;;4918720;29;20183;-64
2022/10/31 04:38:58;;;;;;;108.78;12.82;;;9.00;99.90;;;;;;4917632;29;20074;-65
2022/10/31 04:41:24;;;;;;;36.22;9.68;;;9.00;99.90;;;;;;4905479;29;20047;-63
2022/10/31 04:43:49;;;;;;;13.73;8.52;;;8.90;99.90;;;;;;4932321;29;20055;-63
2022/10/31 04:46:15;;;;;;;20.98;11.55;;;8.90;99.90;;;;;;4925192;29;20035;-63
2022/10/31 04:48:40;;;;;;;19.02;11.13;;;8.80;99.90;;;;;;4928474;29;20039;-64
2022/10/31 04:51:06;;;;;;;18.05;10.05;;;8.80;99.90;;;;;;4928691;29;20372;-64
2022/10/31 04:53:31;;;;;;;13.85;8.70;;;8.80;99.90;;;;;;4926274;29;20046;-63
2022/10/31 04:56:00;;;;;;;17.13;10.02;;;8.80;99.90;;;;;;4927482;29;20536;-63
2022/10/31 04:58:27;;;;;;;15.20;8.85;;;8.70;99.90;;;;;;4904718;29;20056;-63
2022/10/31 05:00:53;;;;;;;18.35;10.32;;;8.70;99.90;;;;;;4905884;29;20175;-64
2022/10/31 05:03:19;;;;;;;19.30;10.10;;;8.60;99.90;;;;;;4895892;29;20163;-64
2022/10/31 05:05:45;;;;;;;17.45;10.18;;;8.60;99.90;;;;;;4900846;29;20032;-63
2022/10/31 05:08:10;;;;;;;17.80;10.15;;;8.60;99.90;;;;;;4896759;29;20071;-64
2022/10/31 05:10:36;;;;;;;141.13;17.27;;;8.50;99.90;;;;;;4899036;29;20048;-64
2022/10/31 05:13:03;;;;;;;16.55;10.73;;;8.50;99.90;;;;;;4902319;29;20044;-63
2022/10/31 05:15:29;;;;;;;18.58;10.23;;;8.50;99.90;;;;;;4896460;29;20119;-65
2022/10/31 05:17:55;;;;;;;18.27;10.93;;;8.50;99.90;;;;;;4900368;29;20525;-65
2022/10/31 05:20:23;;;;;;;12.00;7.85;;;8.50;99.90;;;;;;4907721;29;20051;-63
2022/10/31 05:22:52;;;;;;;9.27;6.55;;;8.60;99.90;;;;;;4901705;29;20044;-64
2022/10/31 05:25:20;;;;;;;10.27;6.88;;;8.50;99.90;;;;;;4897599;29;20087;-63
2022/10/31 05:27:47;;;;;;;8.65;5.72;;;8.50;99.90;;;;;;4898561;29;20122;-64
2022/10/31 05:30:15;;;;;;;8.15;5.72;;;8.50;99.90;;;;;;4902518;29;20036;-64
2022/10/31 05:32:45;;;;;;;12.32;7.38;;;8.40;99.90;;;;;;4902676;29;20385;-63
2022/10/31 05:35:15;;;;;;;;;;;8.40;99.90;;;;;;4899671;29;20036;-65
2022/10/31 05:37:40;;;;;;;70.90;11.95;;;8.30;99.90;;;;;;4898907;29;19993;-64
2022/10/31 05:40:08;;;;;;;129.50;14.02;;;8.30;99.90;;;;;;4904134;29;20040;-65
2022/10/31 05:42:35;;;;;;;109.90;11.35;;;8.30;99.90;;;;;;4902024;29;20515;-65
2022/10/31 05:45:00;;;;;;;139.52;14.15;;;8.20;99.90;;;;;;4900271;29;20055;-65
2022/10/31 05:47:26;;;;;;;13.52;8.65;;;8.20;99.90;;;;;;4900774;29;21248;-63
2022/10/31 05:49:51;;;;;;;21.98;12.07;;;8.10;99.90;;;;;;4903992;29;20111;-63
2022/10/31 05:52:17;;;;;;;26.35;11.75;;;8.10;99.90;;;;;;4910771;29;20388;-64
2022/10/31 05:54:43;;;;;;;18.73;11.07;;;8.10;99.90;;;;;;4898595;29;20052;-63
2022/10/31 05:57:09;;;;;;;18.45;11.02;;;8.00;99.90;;;;;;4903260;29;20047;-63
2022/10/31 05:59:34;;;;;;;20.10;11.63;;;8.10;99.90;;;;;;4935543;29;20040;-63
2022/10/31 06:02:00;;;;;;;19.80;11.45;;;8.10;99.90;;;;;;4926620;29;20060;-63
2022/10/31 06:04:25;;;;;;;20.25;11.27;;;8.00;99.90;;;;;;4934594;29;20044;-63
2022/10/31 06:06:51;;;;;;;26.23;11.43;;;8.00;99.90;;;;;;4929386;29;20546;-63
2022/10/31 06:09:17;;;;;;;54.40;13.00;;;8.00;99.90;;;;;;4934440;29;20071;-64
2022/10/31 06:11:42;;;;;;;40.95;12.35;;;8.00;99.90;;;;;;4911365;29;20376;-64
2022/10/31 06:14:08;;;;;;;35.90;12.02;;;8.00;99.90;;;;;;4928877;29;20055;-65
2022/10/31 06:16:33;;;;;;;34.95;11.20;;;8.00;99.90;;;;;;4929932;29;20492;-64
2022/10/31 06:18:59;;;;;;;19.17;10.57;;;8.00;99.90;;;;;;4926973;29;20479;-64
2022/10/31 06:21:24;;;;;;;30.95;11.55;;;8.00;99.90;;;;;;4930348;29;20412;-64
2022/10/31 06:23:50;;;;;;;18.27;10.38;;;8.00;99.90;;;;;;4932397;29;20046;-64
2022/10/31 06:26:15;;;;;;;27.80;10.70;;;8.00;99.90;;;;;;4929052;29;20130;-63
2022/10/31 06:28:41;;;;;;;48.38;11.98;;;8.00;99.90;;;;;;4930008;29;20507;-64
2022/10/31 06:31:06;;;;;;;22.70;12.48;;;8.00;99.90;;;;;;4922219;29;20044;-63
2022/10/31 06:33:33;;;;;;;17.35;11.48;;;8.10;99.90;;;;;;4924263;29;20388;-63
2022/10/31 06:35:59;;;;;;;18.55;10.63;;;8.10;99.90;;;;;;4934201;29;20365;-64
2022/10/31 06:38:26;;;;;;;14.73;9.57;;;8.10;99.90;;;;;;4931419;29;20044;-64
2022/10/31 06:40:52;;;;;;;13.18;8.95;;;8.10;99.90;;;;;;4930728;29;20118;-64
2022/10/31 06:43:18;;;;;;;10.93;8.57;;;8.10;99.90;;;;;;4934264;29;20063;-64
2022/10/31 06:45:43;;;;;;;10.68;6.57;;;8.20;99.90;;;;;;4929969;29;20036;-64
2022/10/31 06:48:09;;;;;;;11.57;7.00;;;8.20;99.90;;;;;;4934683;29;20043;-65
2022/10/31 06:50:34;;;;;;;9.77;7.05;;;8.20;99.90;;;;;;4934042;29;20031;-64
2022/10/31 06:53:00;;;;;;;15.65;9.48;;;8.20;99.90;;;;;;4922086;29;20479;-63
2022/10/31 06:55:26;;;;;;;88.38;14.02;;;8.10;99.90;;;;;;4913130;29;20451;-63
2022/10/31 06:57:57;;;;;;;22.65;9.68;;;8.10;99.90;;;;;;4925464;29;20143;-63
2022/10/31 07:00:23;;;;;;;31.35;10.07;;;8.10;99.90;;;;;;4928292;29;20051;-64
2022/10/31 07:03:01;;;;;;;39.95;12.10;;;8.10;99.90;;;;;;4899308;29;20047;-63
2022/10/31 07:05:27;;;;;;;29.13;10.88;;;8.00;99.90;;;;;;4915323;29;20384;-64
2022/10/31 07:08:05;;;;;;;22.73;10.55;;;8.00;99.90;;;;;;4930134;29;20123;-64
2022/10/31 07:10:32;;;;;;;17.55;9.15;;;8.00;99.90;;;;;;4926637;29;20047;-65
2022/10/31 07:13:00;;;;;;;17.90;9.65;;;8.00;99.90;;;;;;4927807;29;20048;-63
2022/10/31 07:15:28;;;;;;;19.40;9.55;;;8.00;99.90;;;;;;4913821;29;20055;-63
2022/10/31 07:17:53;;;;;;;26.23;11.23;;;8.00;99.90;;;;;;4931166;29;20043;-63
2022/10/31 07:20:19;;;;;;;22.80;10.70;;;8.00;99.90;;;;;;4927039;29;20507;-63
2022/10/31 07:22:45;;;;;;;31.35;12.02;;;8.00;99.90;;;;;;4929616;29;20067;-63
2022/10/31 07:25:11;;;;;;;30.17;11.45;;;8.00;99.90;;;;;;4928327;29;20500;-63
2022/10/31 07:27:42;;;;;;;20.55;9.40;;;8.00;99.90;;;;;;4931991;29;20083;-63
2022/10/31 07:30:10;;;;;;;49.25;10.15;;;8.00;99.90;;;;;;4927855;29;20135;-63
2022/10/31 07:32:46;;;;;;;59.03;11.23;;;7.90;99.90;;;;;;4933185;29;20047;-64
2022/10/31 07:35:18;;;;;;;15.98;9.30;;;7.90;99.90;;;;;;4932512;29;20395;-63
2022/10/31 07:37:44;;;;;;;14.18;9.05;;;7.90;99.90;;;;;;4922041;29;20054;-64
2022/10/31 07:40:10;;;;;;;18.58;9.15;;;7.90;99.90;;;;;;4933261;29;20032;-63
2022/10/31 07:42:41;;;;;;;19.63;10.30;;;7.90;99.90;;;;;;4917253;29;20421;-63
2022/10/31 07:45:08;;;;;;;;;;;7.90;99.90;;;;;;4928024;29;20062;-63
2022/10/31 07:47:40;;;;;;;34.28;10.43;;;8.00;99.90;;;;;;4918111;29;19922;-64
2022/10/31 07:50:07;;;;;;;18.67;10.40;;;8.00;99.90;;;;;;4935241;29;20042;-63
2022/10/31 07:52:33;;;;;;;19.65;10.98;;;8.10;99.90;;;;;;4924567;29;20032;-64
2022/10/31 07:54:59;;;;;;;32.85;12.77;;;8.20;99.90;;;;;;4930252;29;20487;-64
2022/10/31 07:57:24;;;;;;;45.10;14.38;;;8.30;99.90;;;;;;4931941;29;20076;-64
2022/10/31 07:59:50;;;;;;;33.85;14.05;;;8.40;99.90;;;;;;4933640;29;20096;-63
2022/10/31 08:02:15;;;;;;;31.98;13.15;;;8.60;99.90;;;;;;4924881;29;20048;-63
2022/10/31 08:04:41;;;;;;;62.38;15.25;;;8.60;99.90;;;;;;4903657;29;20052;-64
2022/10/31 08:07:06;;;;;;;98.15;17.00;;;8.70;99.90;;;;;;4925439;29;20095;-64
2022/10/31 08:09:32;;;;;;;69.13;16.17;;;8.80;99.90;;;;;;4930049;29;20044;-63
2022/10/31 08:11:57;;;;;;;58.88;16.10;;;8.90;99.90;;;;;;4922454;29;20823;-64
2022/10/31 08:14:23;;;;;;;59.53;14.85;;;9.00;99.90;;;;;;4920318;29;20048;-65
2022/10/31 08:16:48;;;;;;;44.35;16.20;;;9.00;99.90;;;;;;4905321;29;20052;-63
2022/10/31 08:19:14;;;;;;;31.17;14.80;;;9.00;99.90;;;;;;4931776;29;20044;-63
2022/10/31 08:21:40;;;;;;;66.28;17.27;;;9.10;99.90;;;;;;4929719;29;20039;-63
2022/10/31 08:24:06;;;;;;;46.13;15.80;;;9.20;99.90;;;;;;4930448;29;20060;-63
2022/10/31 08:26:32;;;;;;;100.47;20.98;;;9.30;99.90;;;;;;4934696;29;20090;-64
2022/10/31 08:28:58;;;;;;;64.93;18.40;;;9.40;99.90;;;;;;4932079;29;20040;-64
2022/10/31 08:31:25;;;;;;;30.40;16.40;;;9.60;99.90;;;;;;4933175;29;20047;-63
2022/10/31 08:33:52;;;;;;;57.38;19.65;;;9.70;99.90;;;;;;4934243;29;20043;-63
2022/10/31 08:36:17;;;;;;;51.08;18.75;;;9.80;99.90;;;;;;4932013;29;20087;-63
2022/10/31 08:38:43;;;;;;;42.58;20.60;;;9.90;99.90;;;;;;4930276;29;20508;-65
2022/10/31 08:41:08;;;;;;;45.08;20.27;;;10.00;99.90;;;;;;4927074;29;20177;-64
2022/10/31 08:43:34;;;;;;;38.63;19.88;;;10.00;99.90;;;;;;4926236;29;20512;-64
2022/10/31 08:46:00;;;;;;;33.33;21.05;;;10.20;99.90;;;;;;4927879;29;20094;-63
2022/10/31 08:48:25;;;;;;;31.63;19.73;;;10.30;99.90;;;;;;4931023;29;20050;-63
2022/10/31 08:50:51;;;;;;;37.88;21.67;;;10.30;99.90;;;;;;4928799;29;20520;-64
2022/10/31 08:53:19;;;;;;;32.70;21.35;;;10.50;99.90;;;;;;4931420;29;20043;-64
2022/10/31 08:55:46;;;;;;;35.00;22.17;;;10.60;99.90;;;;;;4933941;29;20047;-63
2022/10/31 08:58:15;;;;;;;38.80;22.50;;;10.70;99.90;;;;;;4931330;29;20059;-64
2022/10/31 09:00:41;;;;;;;34.83;22.33;;;10.80;99.90;;;;;;4930108;29;20048;-63
2022/10/31 09:03:12;;;;;;;38.22;22.58;;;10.90;99.90;;;;;;4924871;29;20036;-63
2022/10/31 09:05:38;;;;;;;;;;;11.10;99.90;;;;;;4930393;29;20083;-65
2022/10/31 09:08:05;;;;;;;37.40;23.05;;;11.30;99.90;;;;;;4927916;29;20367;-63
2022/10/31 09:10:32;;;;;;;46.60;24.25;;;11.50;99.90;;;;;;4919820;29;20531;-63
2022/10/31 09:13:01;;;;;;;39.40;23.77;;;11.60;99.90;;;;;;4926148;29;20127;-65
2022/10/31 09:15:27;;;;;;;37.40;21.05;;;11.70;99.90;;;;;;4934350;29;20040;-65
2022/10/31 09:17:54;;;;;;;42.15;23.67;;;11.80;99.90;;;;;;4933185;29;20095;-62
2022/10/31 09:20:20;;;;;;;41.00;22.48;;;11.90;99.90;;;;;;4921513;29;20036;-63
2022/10/31 09:22:46;;;;;;;36.80;22.33;;;12.00;99.90;;;;;;4932550;29;20071;-63
2022/10/31 09:25:11;;;;;;;36.38;21.70;;;12.10;99.90;;;;;;4935627;29;20467;-63
2022/10/31 09:27:37;;;;;;;37.58;21.48;;;12.20;99.90;;;;;;4917882;29;20046;-65
2022/10/31 09:30:04;;;;;;;38.95;21.80;;;12.30;99.90;;;;;;4929976;29;20075;-64
2022/10/31 09:32:29;;;;;;;35.78;21.73;;;12.40;99.90;;;;;;4932076;29;20058;-64
2022/10/31 09:34:55;;;;;;;39.33;22.60;;;12.50;99.90;;;;;;4917364;29;20108;-64
2022/10/31 09:37:20;;;;;;;33.42;20.15;;;12.60;99.90;;;;;;4935621;29;20043;-64
2022/10/31 09:39:46;;;;;;;36.75;20.50;;;12.70;99.90;;;;;;4934280;29;20044;-64
2022/10/31 09:42:29;;;;;;;32.50;20.42;;;12.90;99.90;;;;;;4932566;29;20130;-64
2022/10/31 09:45:00;;;;;;;34.50;20.50;;;13.00;99.90;;;;;;4934231;29;20051;-64
2022/10/31 09:47:37;;;;;;;41.83;22.77;;;13.00;99.90;;;;;;4931740;29;20361;-64
2022/10/31 09:50:34;;;;;;;36.45;20.25;;;13.00;99.90;;;;;;4919161;29;20051;-65
2022/10/31 09:53:23;;;;;;;36.13;18.90;;;13.00;99.90;;;;;;4915096;29;20131;-63
2022/10/31 09:55:50;;;;;;;33.15;19.23;;;13.10;99.90;;;;;;4927280;29;20058;-64
2022/10/31 09:58:24;;;;;;;32.08;19.42;;;13.20;99.90;;;;;;4934728;29;20079;-63
2022/10/31 10:00:51;;;;;;;34.00;19.48;;;13.20;99.90;;;;;;4931509;29;20363;-65
2022/10/31 10:03:37;;;;;;;33.15;17.85;;;13.20;99.90;;;;;;4932852;29;20048;-64
2022/10/31 10:06:09;;;;;;;31.05;17.33;;;13.20;99.90;;;;;;4926901;29;20167;-63
2022/10/31 10:08:35;;;;;;;39.72;19.83;;;13.30;99.90;;;;;;4935887;29;20047;-64
2022/10/31 10:11:31;;;;;;;32.95;18.60;;;13.30;99.90;;;;;;4936985;29;20075;-66
2022/10/31 10:14:24;;;;;;;34.35;18.27;;;13.40;99.90;;;;;;4931534;29;20051;-65
2022/10/31 10:17:18;;;;;;;33.88;18.35;;;13.50;99.90;;;;;;4933819;29;20043;-64
2022/10/31 10:19:59;;;;;;;32.50;18.52;;;13.50;99.90;;;;;;4935924;29;20499;-65
2022/10/31 10:22:40;;;;;;;33.67;19.13;;;13.50;99.90;;;;;;4934090;29;20507;-64
2022/10/31 10:25:14;;;;;;;34.20;19.35;;;13.60;99.90;;;;;;4913337;29;20135;-64
2022/10/31 10:27:52;;;;;;;32.10;18.25;;;13.60;99.90;;;;;;4935435;29;20106;-64
2022/10/31 10:30:21;;;;;;;34.47;18.83;;;13.70;99.90;;;;;;4924850;29;20039;-64
2022/10/31 10:33:02;;;;;;;29.27;18.27;;;13.80;99.90;;;;;;4933617;29;20040;-64
2022/10/31 10:35:34;;;;;;;32.70;19.60;;;13.80;99.90;;;;;;4915123;29;20066;-64
2022/10/31 10:38:19;;;;;;;32.00;17.13;;;13.90;99.90;;;;;;4930449;29;20059;-64
2022/10/31 10:40:46;;;;;;;32.58;17.27;;;14.00;99.90;;;;;;4933606;29;20346;-63
2022/10/31 10:43:26;;;;;;;24.48;16.23;;;14.10;99.90;;;;;;4929325;29;20040;-65
2022/10/31 10:49:10;;;;;;;31.02;17.23;;;14.20;99.90;;;;;;4916175;29;20052;-63
2022/10/31 10:52:07;;;;;;;25.70;16.23;;;14.30;99.90;;;;;;4931636;29;20036;-63
2022/10/31 10:54:48;;;;;;;23.92;14.60;;;14.40;99.90;;;;;;4927488;29;20044;-65
2022/10/31 10:57:17;;;;;;;;;;;14.50;99.90;;;;;;4932098;29;20388;-65
2022/10/31 10:59:44;;;;;;;26.73;14.18;;;14.50;99.90;;;;;;4917984;29;19925;-64
2022/10/31 11:02:18;;;;;;;24.08;14.73;;;14.60;99.90;;;;;;4932149;29;20517;-64
2022/10/31 11:04:49;;;;;;;21.88;13.27;;;14.60;99.90;;;;;;4916253;29;20048;-64
2022/10/31 11:07:14;;;;;;;24.30;13.80;;;14.70;99.90;;;;;;4933366;29;20059;-64
2022/10/31 11:09:40;;;;;;;25.92;14.50;;;14.70;99.90;;;;;;4918484;29;20032;-64
2022/10/31 11:12:29;;;;;;;23.60;15.30;;;14.80;99.90;;;;;;4933211;29;20047;-66
2022/10/31 11:15:00;;;;;;;28.05;15.02;;;14.80;99.90;;;;;;4915876;29;20175;-64
2022/10/31 11:17:31;;;;;;;22.10;14.55;;;14.90;99.90;;;;;;4911091;29;20047;-64
2022/10/31 11:20:11;;;;;;;26.23;15.38;;;15.00;99.90;;;;;;4934599;29;20050;-64
2022/10/31 11:22:37;;;;;;;;;;;15.00;99.90;;;;;;4931221;29;20775;-64
2022/10/31 11:25:20;;;;;;;29.10;15.43;;;15.00;99.90;;;;;;4913591;29;19969;-65
2022/10/31 11:28:08;;;;;;;21.95;14.38;;;15.10;99.90;;;;;;4932966;29;20039;-64
2022/10/31 11:30:48;;;;;;;24.95;13.65;;;15.20;99.90;;;;;;4929485;29;20039;-63
2022/10/31 11:33:36;;;;;;;24.80;14.43;;;15.10;99.90;;;;;;4917802;29;20094;-64
2022/10/31 11:36:12;;;;;;;21.80;12.73;;;15.10;99.90;;;;;;4932803;29;20082;-64
2022/10/31 11:38:43;;;;;;;20.52;13.23;;;15.10;99.90;;;;;;4925369;29;20067;-64
2022/10/31 11:41:25;;;;;;;25.30;14.60;;;15.00;99.90;;;;;;4934712;29;20040;-65
2022/10/31 11:43:54;;;;;;;25.23;14.02;;;15.00;99.90;;;;;;4930062;29;20044;-64
2022/10/31 11:46:26;;;;;;;28.38;14.93;;;15.10;99.90;;;;;;4929450;29;20039;-63
2022/10/31 11:48:54;;;;;;;26.77;14.77;;;15.10;99.90;;;;;;4915970;29;20079;-63
2022/10/31 11:51:23;;;;;;;28.77;14.73;;;15.10;99.90;;;;;;4932521;29;20039;-63
2022/10/31 11:53:53;;;;;;;28.73;15.27;;;15.10;99.90;;;;;;4928287;29;20035;-63
2022/10/31 11:56:19;;;;;;;26.75;14.65;;;15.10;99.90;;;;;;4926532;29;20036;-63
2022/10/31 11:59:00;;;;;;;22.17;13.07;;;15.10;99.90;;;;;;4934532;29;20073;-63
2022/10/31 12:01:29;;;;;;;24.92;13.25;;;15.20;99.90;;;;;;4921143;29;20392;-65
2022/10/31 12:04:07;;;;;;;22.40;12.70;;;15.20;99.90;;;;;;4933258;29;20047;-65
2022/10/31 12:06:41;;;;;;;22.30;11.73;;;15.20;99.90;;;;;;4930860;29;20040;-64
2022/10/31 12:09:25;;;;;;;24.55;12.07;;;15.30;99.90;;;;;;4920990;29;20082;-64
2022/10/31 12:12:12;;;;;;;21.73;11.38;;;15.50;99.90;;;;;;4929948;29;20094;-64
2022/10/31 12:15:11;;;;;;;20.15;12.07;;;15.60;99.90;;;;;;4929088;29;20043;-64
2022/10/31 12:17:46;;;;;;;19.13;11.00;;;15.60;99.90;;;;;;4929590;29;20040;-64
2022/10/31 12:20:21;;;;;;;21.35;11.55;;;15.60;99.90;;;;;;4916363;29;20550;-64
2022/10/31 12:23:24;;;;;;;20.40;11.82;;;15.50;99.90;;;;;;4931857;29;20067;-64
2022/10/31 12:26:33;;;;;;;20.80;11.95;;;15.50;99.90;;;;;;4929696;29;20056;-64
2022/10/31 12:29:33;;;;;;;27.20;13.63;;;15.40;99.90;;;;;;4926709;29;20507;-64
2022/10/31 12:32:29;;;;;;;20.50;12.20;;;15.40;99.90;;;;;;4928588;29;20086;-63
2022/10/31 12:35:06;;;;;;;24.70;13.18;;;15.40;99.90;;;;;;4931650;29;20094;-64
2022/10/31 12:37:38;;;;;;;21.05;11.93;;;15.40;99.90;;;;;;4930779;29;20036;-63
2022/10/31 12:40:33;;;;;;;23.38;12.93;;;15.50;99.90;;;;;;4930672;29;20043;-62
2022/10/31 12:43:17;;;;;;;23.73;12.20;;;15.50;99.90;;;;;;4930921;29;20035;-64
2022/10/31 12:45:58;;;;;;;25.70;12.80;;;15.40;99.90;;;;;;4929579;29;20385;-65
2022/10/31 12:48:41;;;;;;;25.48;12.63;;;15.40;99.90;;;;;;4931673;29;20612;-64
2022/10/31 12:51:18;;;;;;;23.23;12.13;;;15.40;99.90;;;;;;4930222;29;20106;-65
2022/10/31 12:54:13;;;;;;;21.48;11.30;;;15.40;99.90;;;;;;4931844;29;20495;-64
2022/10/31 12:57:22;;;;;;;21.02;11.48;;;15.50;99.90;;;;;;4927742;29;20110;-65
2022/10/31 13:00:15;;;;;;;23.83;12.50;;;15.50;99.90;;;;;;4940871;29;20051;-64